Time;durP1;ratioP1;P1;durP2;ratioP2;P2;SDS_P1;SDS_P2;PMS_P1;PMS_P2;Temp;Humidity;BMP_temperature;BMP_pressure;BME280_temperature;BME280_humidity;BME280_pressure;Samples;Min_cycle;Max_cycle;Signal;HPM_P1;HPM_P2
2022/08/22 00:00:56;;;;;;;;;;;;;;;25.75;48.91;99677.66;2033989;29;19939;-42
2022/08/22 00:02:18;;;;;;;;;;;;;;;25.74;49.01;99690.59;2033182;29;19919;-41
2022/08/22 00:03:30;;;;;;;;;;;;;;;25.75;48.92;99688.69;2029288;29;19914;-43
2022/08/22 00:04:47;;;;;;;;;;;;;;;25.75;49.27;99685.94;2033007;29;19922;-42
2022/08/22 00:05:57;;;;;;;;;;;;;;;25.74;49.22;99684.25;2034002;29;20352;-42
2022/08/22 00:07:13;;;;;;;;;;;;;;;25.74;48.91;99692.53;2026094;29;20018;-42
2022/08/22 00:08:32;;;;;;;;;;;;;;;25.72;49.01;99684.44;2033662;29;19914;-42
2022/08/22 00:09:51;;;;;;;;;;;;;;;25.73;49.26;99685.31;2034441;29;20360;-42
2022/08/22 00:11:01;;;;;;;;;;;;;;;25.73;48.97;99690.84;2032520;29;19919;-45
2022/08/22 00:12:07;;;;;;;;;;;;;;;25.72;49.19;99684.44;2040025;29;19950;-43
2022/08/22 00:13:18;;;;;;;;;;;;;;;25.72;49.00;99684.44;2032658;29;20002;-42
2022/08/22 00:14:29;;;;;;;;;;;;;;;25.72;49.01;99683.59;2033970;29;19919;-42
2022/08/22 00:15:29;;;;;;;;;;;;;;;25.72;49.25;99689.09;2040477;29;19926;-42
2022/08/22 00:16:48;;;;;;;;;;;;;;;25.72;49.32;99683.59;2032878;29;20364;-42
2022/08/22 00:17:59;;;;;;;;;;;;;;;25.71;49.14;99682.75;2039566;29;20285;-43
2022/08/22 00:19:02;;;;;;;;;;;;;;;25.71;49.16;99679.13;2038876;29;19950;-42
2022/08/22 00:20:02;;;;;;;;;;;;;;;25.70;49.07;99674.66;2033601;29;19923;-43
2022/08/22 00:21:08;;;;;;;;;;;;;;;25.71;49.30;99681.91;2031387;29;19950;-45
2022/08/22 00:22:34;;;;;;;;;;;;;;;25.71;49.24;99682.75;2031080;29;20013;-41
2022/08/22 00:23:46;;;;;;;;;;;;;;;25.70;49.18;99680.19;2026252;29;20527;-45
2022/08/22 00:25:06;;;;;;;;;;;;;;;25.71;49.14;99687.41;2027983;29;19958;-43
2022/08/22 00:26:15;;;;;;;;;;;;;;;25.72;49.00;99686.34;2030577;29;19978;-43
2022/08/22 00:27:19;;;;;;;;;;;;;;;25.72;49.02;99680.81;2033353;29;19906;-44
2022/08/22 00:28:22;;;;;;;;;;;;;;;25.71;48.99;99677.22;2035263;29;19954;-42
2022/08/22 00:29:25;;;;;;;;;;;;;;;25.71;48.92;99679.97;2034610;29;19995;-42
2022/08/22 00:30:26;;;;;;;;;;;;;;;25.70;49.07;99672.78;2034459;29;19953;-41
2022/08/22 00:31:27;;;;;;;;;;;;;;;25.72;49.06;99672.53;2032914;29;20144;-43
2022/08/22 00:32:40;;;;;;;;;;;;;;;25.72;49.20;99678.91;2033789;29;19919;-43
2022/08/22 00:33:49;;;;;;;;;;;;;;;25.72;49.19;99675.31;2033380;29;19918;-43
2022/08/22 00:35:15;;;;;;;;;;;;;;;25.72;49.01;99681.69;2034150;29;20344;-43
2022/08/22 00:36:23;;;;;;;;;;;;;;;25.71;49.02;99677.22;2031751;29;19919;-42
2022/08/22 00:37:30;;;;;;;;;;;;;;;25.72;49.21;99678.06;2031322;29;19965;-43
2022/08/22 00:38:35;;;;;;;;;;;;;;;25.72;48.92;99669.78;2037086;29;19926;-44
2022/08/22 00:39:35;;;;;;;;;;;;;;;25.71;49.28;99673.63;2034627;29;19914;-43
2022/08/22 00:40:47;;;;;;;;;;;;;;;25.72;48.92;99678.06;2035658;29;19914;-43
2022/08/22 00:42:04;;;;;;;;;;;;;;;25.72;49.05;99675.31;2032718;29;20120;-43
2022/08/22 00:43:23;;;;;;;;;;;;;;;25.73;49.08;99674.28;2033864;29;20516;-43
2022/08/22 00:44:41;;;;;;;;;;;;;;;25.72;49.04;99672.53;2032716;29;19915;-44
2022/08/22 00:45:44;;;;;;;;;;;;;;;25.72;49.31;99672.53;2032309;29;19922;-42
2022/08/22 00:46:51;;;;;;;;;;;;;;;25.72;49.21;99678.91;2035514;29;19914;-43
2022/08/22 00:47:54;;;;;;;;;;;;;;;25.72;48.92;99672.53;2035600;29;20003;-43
2022/08/22 00:49:05;;;;;;;;;;;;;;;25.71;49.08;99676.38;2035305;29;19925;-43
2022/08/22 00:50:15;;;;;;;;;;;;;;;25.71;49.25;99670.84;2041350;29;20621;-43
2022/08/22 00:51:32;;;;;;;;;;;;;;;25.71;49.06;99681.91;2034531;29;19915;-42
2022/08/22 00:52:46;;;;;;;;;;;;;;;25.70;49.30;99670.00;2034480;29;19919;-44
2022/08/22 00:53:49;;;;;;;;;;;;;;;25.71;49.17;99676.38;2041178;29;19919;-44
2022/08/22 00:54:55;;;;;;;;;;;;;;;25.70;49.05;99678.28;2037062;29;19953;-42
2022/08/22 00:56:21;;;;;;;;;;;;;;;25.70;49.21;99674.66;2038164;29;19917;-44
2022/08/22 00:57:27;;;;;;;;;;;;;;;25.70;49.22;99670.00;2038155;29;19919;-45
2022/08/22 00:58:37;;;;;;;;;;;;;;;25.69;49.07;99672.97;2042018;29;20629;-43
2022/08/22 00:59:37;;;;;;;;;;;;;;;25.69;49.27;99672.97;2034855;29;19950;-42
2022/08/22 01:00:41;;;;;;;;;;;;;;;25.69;49.05;99672.97;2034916;29;19922;-43
2022/08/22 01:01:51;;;;;;;;;;;;;;;25.67;49.34;99671.28;2036227;29;19919;-43
2022/08/22 01:02:54;;;;;;;;;;;;;;;25.69;49.09;99672.97;2035439;29;19919;-45
2022/08/22 01:04:06;;;;;;;;;;;;;;;25.67;49.32;99671.28;2034989;29;19915;-43
2022/08/22 01:05:25;;;;;;;;;;;;;;;25.67;49.16;99671.28;2034681;29;20677;-43
2022/08/22 01:06:35;;;;;;;;;;;;;;;25.67;49.04;99671.28;2027299;29;19919;-44
2022/08/22 01:07:45;;;;;;;;;;;;;;;25.68;49.26;99672.13;2035439;29;19934;-42
2022/08/22 01:08:53;;;;;;;;;;;;;;;25.68;49.29;99661.06;2034748;29;20395;-43
2022/08/22 01:10:13;;;;;;;;;;;;;;;25.69;49.19;99672.97;2034781;29;19918;-44
2022/08/22 01:11:39;;;;;;;;;;;;;;;25.69;49.17;99667.44;2035005;29;19919;-43
2022/08/22 01:12:59;;;;;;;;;;;;;;;25.69;49.30;99670.19;2034993;29;19923;-41
2022/08/22 01:14:18;;;;;;;;;;;;;;;25.70;49.24;99669.13;2032802;29;20528;-42
2022/08/22 01:15:22;;;;;;;;;;;;;;;25.69;49.07;99668.28;2033040;29;20001;-43
2022/08/22 01:16:34;;;;;;;;;;;;;;;25.69;49.06;99662.78;2034771;29;19988;-44
2022/08/22 01:18:04;;;;;;;;;;;;;;;25.67;49.01;99671.28;2034741;29;19918;-42
2022/08/22 01:19:07;;;;;;;;;;;;;;;25.70;49.00;99663.63;2009212;29;19916;-43
2022/08/22 01:20:07;;;;;;;;;;;;;;;25.69;49.01;99667.44;2015525;29;20010;-46
2022/08/22 01:21:16;;;;;;;;;;;;;;;25.70;49.23;99669.13;2030682;29;19918;-43
2022/08/22 01:22:35;;;;;;;;;;;;;;;25.70;49.03;99666.38;2035433;29;19993;-43
2022/08/22 01:23:35;;;;;;;;;;;;;;;25.70;48.98;99669.13;2034873;29;19934;-42
2022/08/22 01:25:17;;;;;;;;;;;;;;;25.70;49.05;99667.25;2032879;29;19926;-42
2022/08/22 01:26:36;;;;;;;;;;;;;;;25.70;49.14;99669.13;2035523;29;19919;-43
2022/08/22 01:27:56;;;;;;;;;;;;;;;25.70;48.93;99677.41;2041687;29;19914;-42
2022/08/22 01:29:12;;;;;;;;;;;;;;;25.69;49.05;99667.44;2027733;29;19966;-42
2022/08/22 01:30:18;;;;;;;;;;;;;;;25.68;49.30;99666.59;2034918;29;20122;-42
2022/08/22 01:31:37;;;;;;;;;;;;;;;25.69;49.19;99664.69;2033261;29;20385;-42
2022/08/22 01:32:53;;;;;;;;;;;;;;;25.69;49.15;99668.28;2033931;29;20010;-42
2022/08/22 01:34:02;;;;;;;;;;;;;;;25.68;49.09;99672.13;2027138;29;19947;-42
2022/08/22 01:35:14;;;;;;;;;;;;;;;25.70;49.25;99669.13;2032821;29;20003;-43
2022/08/22 01:36:50;;;;;;;;;;;;;;;25.67;49.27;99668.50;2032091;29;19918;-44
2022/08/22 01:37:53;;;;;;;;;;;;;;;25.67;49.00;99665.75;2006296;29;19916;-47
2022/08/22 01:39:12;;;;;;;;;;;;;;;25.67;49.19;99662.13;2008168;29;19970;-43
2022/08/22 01:40:31;;;;;;;;;;;;;;;25.66;49.11;99666.78;2009086;29;19930;-43
2022/08/22 01:41:50;;;;;;;;;;;;;;;25.66;49.03;99666.78;2037088;29;19918;-43
2022/08/22 01:42:50;;;;;;;;;;;;;;;25.66;49.05;99669.53;2034838;29;19919;-44
2022/08/22 01:44:09;;;;;;;;;;;;;;;25.66;49.19;99666.78;2036023;29;19973;-42
2022/08/22 01:45:15;;;;;;;;;;;;;;;25.67;49.33;99676.78;2028205;29;20660;-42
2022/08/22 01:46:28;;;;;;;;;;;;;;;25.66;49.16;99672.31;2038082;29;19989;-43
2022/08/22 01:47:31;;;;;;;;;;;;;;;25.66;48.98;99675.06;2036774;29;19919;-44
2022/08/22 01:48:40;;;;;;;;;;;;;;;25.65;49.09;99667.84;2040634;29;19918;-43
2022/08/22 01:49:45;;;;;;;;;;;;;;;25.64;49.21;99668.91;2033943;29;19918;-43
2022/08/22 01:50:49;;;;;;;;;;;;;;;25.66;49.19;99665.94;2034668;29;19918;-42
2022/08/22 01:51:55;;;;;;;;;;;;;;;25.66;48.98;99663.19;2039111;29;20016;-41
2022/08/22 01:53:02;;;;;;;;;;;;;;;25.66;49.24;99663.19;2037661;29;19911;-43
2022/08/22 01:54:12;;;;;;;;;;;;;;;25.65;49.12;99659.56;2036285;29;19919;-42
2022/08/22 01:55:21;;;;;;;;;;;;;;;25.66;49.18;99663.19;2034415;29;19930;-43
2022/08/22 01:56:23;;;;;;;;;;;;;;;25.66;49.22;99668.69;2039015;29;19922;-44
2022/08/22 01:57:25;;;;;;;;;;;;;;;25.65;49.12;99656.81;2035469;29;20148;-46
2022/08/22 01:58:30;;;;;;;;;;;;;;;25.65;48.94;99654.06;2034171;29;19999;-42
2022/08/22 01:59:34;;;;;;;;;;;;;;;25.65;49.02;99656.81;2033580;29;19919;-41
2022/08/22 02:00:49;;;;;;;;;;;;;;;25.66;49.14;99660.41;2037420;29;20303;-42
2022/08/22 02:01:59;;;;;;;;;;;;;;;25.66;49.07;99657.66;2036315;29;20053;-43
2022/08/22 02:03:20;;;;;;;;;;;;;;;25.66;49.08;99664.03;2028115;29;19974;-43
2022/08/22 02:04:40;;;;;;;;;;;;;;;25.66;49.10;99664.03;2032058;29;19919;-42
2022/08/22 02:05:59;;;;;;;;;;;;;;;25.66;49.11;99661.28;2032065;29;19918;-42
2022/08/22 02:07:04;;;;;;;;;;;;;;;25.66;49.17;99664.03;2035509;29;19973;-44
2022/08/22 02:08:23;;;;;;;;;;;;;;;25.66;49.14;99668.69;2029210;29;19919;-42
2022/08/22 02:09:42;;;;;;;;;;;;;;;25.66;48.97;99664.03;2032367;29;20444;-43
2022/08/22 02:10:56;;;;;;;;;;;;;;;25.67;49.16;99671.28;2038612;29;19945;-43
2022/08/22 02:12:19;;;;;;;;;;;;;;;25.66;49.14;99669.53;2039303;29;19918;-42
2022/08/22 02:13:22;;;;;;;;;;;;;;;25.66;49.03;99666.78;2028283;29;19918;-43
2022/08/22 02:14:32;;;;;;;;;;;;;;;25.66;48.95;99664.03;2028727;29;19919;-42
2022/08/22 02:15:38;;;;;;;;;;;;;;;25.67;49.35;99664.88;2036750;29;19919;-43
2022/08/22 02:16:44;;;;;;;;;;;;;;;25.66;49.21;99663.19;2035676;29;20360;-44
2022/08/22 02:17:51;;;;;;;;;;;;;;;25.65;49.19;99662.34;2038984;29;20674;-43
2022/08/22 02:18:59;;;;;;;;;;;;;;;25.65;49.26;99656.81;2042795;29;19915;-43
2022/08/22 02:20:09;;;;;;;;;;;;;;;25.65;49.09;99656.81;2034514;29;19990;-42
2022/08/22 02:21:19;;;;;;;;;;;;;;;25.65;49.19;99656.81;2032814;29;19922;-45
2022/08/22 02:22:40;;;;;;;;;;;;;;;25.65;49.21;99655.97;2035170;29;19919;-43
2022/08/22 02:23:43;;;;;;;;;;;;;;;25.64;49.21;99649.56;2031008;29;19921;-42
2022/08/22 02:25:03;;;;;;;;;;;;;;;25.64;48.97;99657.84;2034015;29;19933;-43
2022/08/22 02:26:03;;;;;;;;;;;;;;;25.63;49.06;99653.41;2032091;29;19914;-42
2022/08/22 02:27:03;;;;;;;;;;;;;;;25.64;49.14;99659.78;2035935;29;19915;-44
2022/08/22 02:28:12;;;;;;;;;;;;;;;25.63;49.14;99653.41;2038850;29;20449;-43
2022/08/22 02:29:16;;;;;;;;;;;;;;;25.63;49.00;99653.41;2025208;29;20004;-42
2022/08/22 02:30:39;;;;;;;;;;;;;;;25.63;48.89;99649.78;2025388;29;19947;-42
2022/08/22 02:31:39;;;;;;;;;;;;;;;25.64;49.23;99648.72;2022100;29;20475;-42
2022/08/22 02:32:40;;;;;;;;;;;;;;;25.64;49.04;99654.25;2028540;29;19991;-43
2022/08/22 02:33:52;;;;;;;;;;;;;;;25.62;49.03;99646.16;2031115;29;19919;-44
2022/08/22 02:34:55;;;;;;;;;;;;;;;25.63;49.21;99652.56;2036356;29;20462;-42
2022/08/22 02:36:03;;;;;;;;;;;;;;;25.63;48.91;99652.56;2034336;29;20443;-42
2022/08/22 02:37:13;;;;;;;;;;;;;;;25.63;48.91;99647.88;2034444;29;19947;-43
2022/08/22 02:38:34;;;;;;;;;;;;;;;25.63;48.88;99649.78;2037560;29;20640;-46
2022/08/22 02:39:37;;;;;;;;;;;;;;;25.63;48.88;99652.56;2035401;29;19919;-43
2022/08/22 02:40:50;;;;;;;;;;;;;;;25.64;48.92;99654.25;2035575;29;19923;-44
2022/08/22 02:41:55;;;;;;;;;;;;;;;25.64;48.91;99648.72;2036019;29;19970;-44
2022/08/22 02:43:18;;;;;;;;;;;;;;;25.63;48.88;99650.66;2034051;29;19945;-43
2022/08/22 02:44:24;;;;;;;;;;;;;;;25.64;49.18;99654.25;2018774;29;19915;-43
2022/08/22 02:45:24;;;;;;;;;;;;;;;25.64;49.21;99648.72;2036841;29;19915;-43
2022/08/22 02:46:24;;;;;;;;;;;;;;;25.64;48.88;99651.50;2033478;29;19919;-43
2022/08/22 02:47:31;;;;;;;;;;;;;;;25.64;49.18;99660.63;2029319;29;19919;-42
2022/08/22 02:48:42;;;;;;;;;;;;;;;25.64;49.12;99651.50;2030257;29;20195;-43
2022/08/22 02:50:01;;;;;;;;;;;;;;;25.64;48.93;99659.78;2033534;29;19919;-43
2022/08/22 02:51:04;;;;;;;;;;;;;;;25.64;48.87;99649.56;2030440;29;19929;-42
2022/08/22 02:52:31;;;;;;;;;;;;;;;25.64;48.96;99648.72;2040198;29;19915;-42
2022/08/22 02:53:35;;;;;;;;;;;;;;;25.63;49.18;99653.41;2011057;29;19916;-43
2022/08/22 02:54:44;;;;;;;;;;;;;;;25.64;49.15;99660.63;2027672;29;19911;-42
2022/08/22 02:55:51;;;;;;;;;;;;;;;25.63;48.95;99658.91;2037467;29;19919;-42
2022/08/22 02:56:56;;;;;;;;;;;;;;;25.63;48.84;99653.41;2035382;29;20396;-42
2022/08/22 02:58:04;;;;;;;;;;;;;;;25.64;49.08;99657.84;2035806;29;19922;-42
2022/08/22 02:59:13;;;;;;;;;;;;;;;25.64;49.08;99659.78;2037783;29;19918;-42
2022/08/22 03:00:16;;;;;;;;;;;;;;;25.64;49.06;99654.25;2037424;29;20058;-43
2022/08/22 03:01:43;;;;;;;;;;;;;;;25.64;49.02;99655.09;2033630;29;19918;-43
2022/08/22 03:02:56;;;;;;;;;;;;;;;25.64;49.28;99654.25;2027380;29;19953;-42
2022/08/22 03:04:15;;;;;;;;;;;;;;;25.62;49.05;99651.69;2033179;29;20041;-43
2022/08/22 03:05:22;;;;;;;;;;;;;;;25.62;49.07;99659.97;2033489;29;19921;-43
2022/08/22 03:06:34;;;;;;;;;;;;;;;25.62;49.23;99651.69;2026282;29;19958;-44
2022/08/22 03:07:39;;;;;;;;;;;;;;;25.61;48.96;99661.03;2030056;29;19958;-43
2022/08/22 03:08:58;;;;;;;;;;;;;;;25.61;49.23;99650.00;2027017;29;20882;-43
2022/08/22 03:10:09;;;;;;;;;;;;;;;25.61;48.92;99661.03;2027709;29;20409;-42
2022/08/22 03:11:18;;;;;;;;;;;;;;;25.62;49.06;99664.63;2034883;29;19962;-44
2022/08/22 03:12:41;;;;;;;;;;;;;;;25.61;49.08;99666.56;2031446;29;20574;-44
2022/08/22 03:13:53;;;;;;;;;;;;;;;25.60;48.97;99659.34;2032603;29;20026;-43
2022/08/22 03:15:00;;;;;;;;;;;;;;;25.61;48.85;99661.03;2036035;29;20367;-44
2022/08/22 03:16:09;;;;;;;;;;;;;;;25.62;49.14;99662.72;2025872;29;19915;-43
2022/08/22 03:17:20;;;;;;;;;;;;;;;25.61;49.16;99666.56;2027437;29;20409;-43
2022/08/22 03:18:26;;;;;;;;;;;;;;;25.60;49.19;99664.84;2028978;29;19978;-43
2022/08/22 03:19:30;;;;;;;;;;;;;;;25.60;49.08;99664.84;2026926;29;20648;-43
2022/08/22 03:20:50;;;;;;;;;;;;;;;25.61;49.13;99666.56;2026785;29;20288;-42
2022/08/22 03:21:53;;;;;;;;;;;;;;;25.60;49.05;99659.34;2034217;29;19918;-43
2022/08/22 03:22:58;;;;;;;;;;;;;;;25.60;49.04;99667.63;2033745;29;19986;-43
2022/08/22 03:23:59;;;;;;;;;;;;;;;25.60;48.87;99664.84;2031371;29;19926;-43
2022/08/22 03:25:08;;;;;;;;;;;;;;;25.61;48.83;99666.56;2032033;29;19919;-43
2022/08/22 03:26:29;;;;;;;;;;;;;;;25.61;49.05;99660.19;2027544;29;20405;-42
2022/08/22 03:27:53;;;;;;;;;;;;;;;25.61;49.06;99661.03;2032819;29;19926;-42
2022/08/22 03:29:16;;;;;;;;;;;;;;;25.60;49.00;99664.84;2021893;29;19981;-43
2022/08/22 03:30:35;;;;;;;;;;;;;;;25.61;49.14;99661.03;2032990;29;20226;-43
2022/08/22 03:31:36;;;;;;;;;;;;;;;25.61;48.98;99666.56;2034440;29;20407;-42
2022/08/22 03:32:52;;;;;;;;;;;;;;;25.61;49.20;99661.03;2034678;29;19919;-44
2022/08/22 03:34:12;;;;;;;;;;;;;;;25.61;49.12;99661.03;2033629;29;19919;-46
2022/08/22 03:35:23;;;;;;;;;;;;;;;25.61;48.98;99662.94;2035100;29;19921;-43
2022/08/22 03:36:25;;;;;;;;;;;;;;;25.61;49.14;99660.19;2032622;29;20022;-44
2022/08/22 03:37:26;;;;;;;;;;;;;;;25.61;49.09;99665.69;2034624;29;19919;-43
2022/08/22 03:38:37;;;;;;;;;;;;;;;25.62;48.76;99667.41;2034684;29;19917;-43
2022/08/22 03:39:49;;;;;;;;;;;;;;;25.61;49.14;99660.19;2036307;29;20113;-43
2022/08/22 03:40:55;;;;;;;;;;;;;;;25.61;48.86;99665.69;2032867;29;19925;-43
2022/08/22 03:42:09;;;;;;;;;;;;;;;25.61;49.13;99655.50;2032905;29;19918;-42
2022/08/22 03:43:12;;;;;;;;;;;;;;;25.61;48.97;99663.78;2034639;29;20137;-45
2022/08/22 03:44:19;;;;;;;;;;;;;;;25.60;48.87;99664.84;2033452;29;20021;-43
2022/08/22 03:45:43;;;;;;;;;;;;;;;25.60;48.97;99662.09;2033986;29;20728;-43
2022/08/22 03:47:02;;;;;;;;;;;;;;;25.60;49.16;99667.63;2034259;29;20894;-43
2022/08/22 03:48:22;;;;;;;;;;;;;;;25.60;49.09;99661.22;2038380;29;19998;-43
2022/08/22 03:49:45;;;;;;;;;;;;;;;25.59;48.99;99663.13;2032828;29;19918;-43
2022/08/22 03:51:04;;;;;;;;;;;;;;;25.59;48.99;99671.41;2034983;29;19926;-43
2022/08/22 03:52:04;;;;;;;;;;;;;;;25.59;48.89;99668.66;2037659;29;19919;-43
2022/08/22 03:53:21;;;;;;;;;;;;;;;25.59;48.86;99670.56;2039430;29;19976;-42
2022/08/22 03:54:40;;;;;;;;;;;;;;;25.58;48.94;99669.72;2030931;29;19915;-42
2022/08/22 03:55:46;;;;;;;;;;;;;;;25.59;49.08;99674.16;2035538;29;20162;-46
2022/08/22 03:56:55;;;;;;;;;;;;;;;25.58;49.01;99678.00;2040013;29;19930;-43
2022/08/22 03:58:15;;;;;;;;;;;;;;;25.59;49.13;99676.09;2035609;29;20001;-44
2022/08/22 03:59:21;;;;;;;;;;;;;;;25.59;48.89;99673.31;2036252;29;19922;-42
2022/08/22 04:00:24;;;;;;;;;;;;;;;25.58;48.89;99669.72;2040698;29;19925;-43
2022/08/22 04:01:36;;;;;;;;;;;;;;;25.59;48.83;99681.59;2039576;29;19914;-43
2022/08/22 04:03:03;;;;;;;;;;;;;;;25.58;49.00;99672.47;2037933;29;19911;-45
2022/08/22 04:04:07;;;;;;;;;;;;;;;25.59;49.13;99667.81;2035469;29;19922;-43
2022/08/22 04:05:25;;;;;;;;;;;;;;;25.58;49.04;99671.63;2041734;29;19910;-43
2022/08/22 04:06:26;;;;;;;;;;;;;;;25.58;49.03;99678.00;2042638;29;20347;-44
2022/08/22 04:07:26;;;;;;;;;;;;;;;25.58;49.09;99669.72;2035493;29;19918;-46
2022/08/22 04:08:26;;;;;;;;;;;;;;;25.58;49.07;99672.47;2032994;29;20345;-44
2022/08/22 04:09:35;;;;;;;;;;;;;;;25.58;48.77;99678.00;2032580;29;19986;-43
2022/08/22 04:10:55;;;;;;;;;;;;;;;25.58;49.01;99675.25;2034422;29;19930;-44
2022/08/22 04:12:14;;;;;;;;;;;;;;;25.59;48.79;99676.94;2033099;29;19918;-43
2022/08/22 04:13:33;;;;;;;;;;;;;;;25.58;48.90;99672.47;2036565;29;19925;-42
2022/08/22 04:14:49;;;;;;;;;;;;;;;25.58;49.10;99678.00;2036003;29;19915;-42
2022/08/22 04:15:55;;;;;;;;;;;;;;;25.58;48.88;99672.47;2030779;29;20011;-42
2022/08/22 04:16:55;;;;;;;;;;;;;;;25.59;49.15;99676.94;2035413;29;19925;-43
2022/08/22 04:17:59;;;;;;;;;;;;;;;25.58;49.09;99677.16;2032451;29;19919;-42
2022/08/22 04:19:24;;;;;;;;;;;;;;;25.58;48.90;99683.53;2036022;29;20392;-44
2022/08/22 04:20:28;;;;;;;;;;;;;;;25.58;48.83;99683.53;2038279;29;19918;-43
2022/08/22 04:21:41;;;;;;;;;;;;;;;25.59;49.14;99689.88;2040453;29;19933;-45
2022/08/22 04:23:05;;;;;;;;;;;;;;;25.60;49.09;99686.06;2036362;29;19918;-43
2022/08/22 04:24:12;;;;;;;;;;;;;;;25.58;48.81;99689.03;2034931;29;20455;-42
2022/08/22 04:25:18;;;;;;;;;;;;;;;25.59;48.85;99684.38;2032302;29;19919;-42
2022/08/22 04:26:40;;;;;;;;;;;;;;;25.59;48.88;99695.41;2028220;29;19911;-42
2022/08/22 04:27:40;;;;;;;;;;;;;;;25.58;48.85;99689.03;2039743;29;19925;-42
2022/08/22 04:28:49;;;;;;;;;;;;;;;25.58;49.02;99688.19;2030093;29;19923;-44
2022/08/22 04:30:00;;;;;;;;;;;;;;;25.57;49.12;99681.78;2033826;29;19958;-43
2022/08/22 04:31:05;;;;;;;;;;;;;;;25.58;49.08;99686.28;2034050;29;19919;-43
2022/08/22 04:32:15;;;;;;;;;;;;;;;25.57;49.05;99692.84;2029928;29;19926;-42
2022/08/22 04:33:18;;;;;;;;;;;;;;;25.57;48.75;99680.94;2035873;29;19926;-43
2022/08/22 04:34:18;;;;;;;;;;;;;;;25.57;49.01;99680.94;2040176;29;19918;-44
2022/08/22 04:35:27;;;;;;;;;;;;;;;25.56;48.81;99685.63;2034949;29;19958;-44
2022/08/22 04:36:33;;;;;;;;;;;;;;;25.56;48.79;99684.78;2035581;29;19982;-43
2022/08/22 04:37:33;;;;;;;;;;;;;;;25.55;48.87;99686.69;2025606;29;20205;-43
2022/08/22 04:38:39;;;;;;;;;;;;;;;25.56;49.02;99684.78;2021171;29;19915;-43
2022/08/22 04:39:42;;;;;;;;;;;;;;;25.55;49.01;99683.94;2034739;29;19922;-43
2022/08/22 04:40:46;;;;;;;;;;;;;;;25.55;48.83;99689.47;2035271;29;19926;-44
2022/08/22 04:42:22;;;;;;;;;;;;;;;25.55;48.72;99686.69;2041513;29;20037;-45
2022/08/22 04:43:41;;;;;;;;;;;;;;;25.55;48.90;99681.19;2026920;29;19927;-43
2022/08/22 04:44:57;;;;;;;;;;;;;;;25.55;48.75;99691.34;2028636;29;20725;-44
2022/08/22 04:46:06;;;;;;;;;;;;;;;25.55;48.75;99689.47;2032092;29;19911;-42
2022/08/22 04:47:16;;;;;;;;;;;;;;;25.56;48.74;99696.66;2038485;29;20227;-43
2022/08/22 04:48:34;;;;;;;;;;;;;;;25.56;48.80;99690.31;2035510;29;19918;-42
2022/08/22 04:49:42;;;;;;;;;;;;;;;25.57;48.70;99689.22;2034554;29;19965;-42
2022/08/22 04:50:48;;;;;;;;;;;;;;;25.56;48.79;99693.91;2029394;29;20494;-44
2022/08/22 04:51:58;;;;;;;;;;;;;;;25.56;48.82;99696.66;2031543;29;20018;-43
2022/08/22 04:52:58;;;;;;;;;;;;;;;25.56;48.79;99706.84;2035553;29;19981;-43
2022/08/22 04:54:17;;;;;;;;;;;;;;;25.56;49.01;99701.34;2034763;29;19947;-44
2022/08/22 04:55:33;;;;;;;;;;;;;;;25.56;48.95;99702.19;2034738;29;19938;-42
2022/08/22 04:56:51;;;;;;;;;;;;;;;25.56;48.74;99707.69;2038528;29;19960;-43
2022/08/22 04:58:03;;;;;;;;;;;;;;;25.56;49.10;99706.84;2027543;29;20262;-42
2022/08/22 04:59:09;;;;;;;;;;;;;;;25.56;49.05;99702.19;2039835;29;19914;-44
2022/08/22 05:00:10;;;;;;;;;;;;;;;25.56;48.87;99707.69;2039190;29;20566;-42
2022/08/22 05:01:15;;;;;;;;;;;;;;;25.56;48.84;99707.69;2035894;29;19919;-43
2022/08/22 05:02:22;;;;;;;;;;;;;;;25.56;49.10;99696.66;2039830;29;19946;-44
2022/08/22 05:03:24;;;;;;;;;;;;;;;25.56;48.81;99704.94;2035387;29;19961;-43
2022/08/22 05:04:31;;;;;;;;;;;;;;;25.56;49.03;99701.34;2034903;29;19966;-43
2022/08/22 05:05:35;;;;;;;;;;;;;;;25.56;49.01;99707.69;2031117;29;19918;-43
2022/08/22 05:06:44;;;;;;;;;;;;;;;25.56;49.06;99706.84;2034920;29;19918;-44
2022/08/22 05:07:47;;;;;;;;;;;;;;;25.56;49.02;99704.09;2035727;29;19915;-42
2022/08/22 05:08:49;;;;;;;;;;;;;;;25.55;49.04;99700.50;2029291;29;20211;-42
2022/08/22 05:10:00;;;;;;;;;;;;;;;25.57;48.81;99706.63;2029060;29;19919;-45
2022/08/22 05:11:02;;;;;;;;;;;;;;;25.56;49.04;99695.81;2027985;29;19993;-44
2022/08/22 05:12:07;;;;;;;;;;;;;;;25.54;48.88;99698.78;2021919;29;19920;-45
2022/08/22 05:13:16;;;;;;;;;;;;;;;25.54;48.96;99709.81;2023018;29;19946;-44
2022/08/22 05:14:24;;;;;;;;;;;;;;;25.55;48.89;99706.00;2027458;29;20612;-42
2022/08/22 05:15:37;;;;;;;;;;;;;;;25.55;48.91;99705.13;2025455;29;19975;-45
2022/08/22 05:16:40;;;;;;;;;;;;;;;25.54;48.88;99704.28;2026950;29;20283;-44
2022/08/22 05:17:42;;;;;;;;;;;;;;;25.54;49.17;99704.28;2034229;29;19919;-43
2022/08/22 05:18:45;;;;;;;;;;;;;;;25.54;48.98;99706.19;2031683;29;19919;-43
2022/08/22 05:19:51;;;;;;;;;;;;;;;25.53;49.09;99702.59;2035732;29;20797;-42
2022/08/22 05:20:53;;;;;;;;;;;;;;;25.54;48.91;99700.69;2035054;29;19919;-42
2022/08/22 05:21:54;;;;;;;;;;;;;;;25.53;49.11;99708.13;2033394;29;20013;-42
2022/08/22 05:22:57;;;;;;;;;;;;;;;25.53;49.12;99702.59;2034152;29;19929;-44
2022/08/22 05:24:01;;;;;;;;;;;;;;;25.53;49.00;99710.88;2029869;29;20306;-42
2022/08/22 05:25:05;;;;;;;;;;;;;;;25.53;48.93;99710.00;2037828;29;20025;-41
2022/08/22 05:26:06;;;;;;;;;;;;;;;25.52;49.00;99711.91;2031376;29;19919;-42
2022/08/22 05:27:14;;;;;;;;;;;;;;;25.53;48.98;99713.63;2026398;29;20318;-41
2022/08/22 05:28:24;;;;;;;;;;;;;;;25.52;48.91;99711.91;2029962;29;19919;-41
2022/08/22 05:29:27;;;;;;;;;;;;;;;25.52;49.07;99711.91;2028707;29;19926;-43
2022/08/22 05:30:30;;;;;;;;;;;;;;;25.53;49.18;99716.41;2019084;29;19923;-43
2022/08/22 05:31:32;;;;;;;;;;;;;;;25.54;49.13;99720.00;2025729;29;19922;-42
2022/08/22 05:32:39;;;;;;;;;;;;;;;25.53;49.12;99719.16;2042208;29;19918;-42
2022/08/22 05:33:40;;;;;;;;;;;;;;;25.54;49.06;99726.38;2033435;29;20338;-42
2022/08/22 05:34:43;;;;;;;;;;;;;;;25.53;48.98;99719.16;2034986;29;19910;-42
2022/08/22 05:35:45;;;;;;;;;;;;;;;25.54;48.87;99720.84;2035727;29;19926;-42
2022/08/22 05:36:51;;;;;;;;;;;;;;;25.54;49.10;99717.25;2035045;29;19910;-41
2022/08/22 05:37:53;;;;;;;;;;;;;;;25.53;49.05;99716.41;2033376;29;19926;-44
2022/08/22 05:38:59;;;;;;;;;;;;;;;25.53;48.81;99730.19;2027476;29;19989;-43
2022/08/22 05:40:00;;;;;;;;;;;;;;;25.53;49.05;99719.16;2032337;29;20172;-42
2022/08/22 05:41:04;;;;;;;;;;;;;;;25.54;49.07;99731.88;2039397;29;19923;-43
2022/08/22 05:42:11;;;;;;;;;;;;;;;25.54;48.87;99725.53;2034802;29;20233;-43
2022/08/22 05:43:11;;;;;;;;;;;;;;;25.53;48.93;99724.69;2037229;29;19983;-42
2022/08/22 05:44:31;;;;;;;;;;;;;;;25.53;49.01;99729.31;2034514;29;19978;-43
2022/08/22 05:45:33;;;;;;;;;;;;;;;25.53;48.91;99738.47;2034978;29;20125;-46
2022/08/22 05:46:40;;;;;;;;;;;;;;;25.53;49.14;99730.19;2034315;29;19922;-44
2022/08/22 05:47:46;;;;;;;;;;;;;;;25.53;49.09;99741.22;2033472;29;20452;-43
2022/08/22 05:48:52;;;;;;;;;;;;;;;25.54;49.16;99737.41;2035339;29;20145;-42
2022/08/22 05:49:58;;;;;;;;;;;;;;;25.53;49.11;99735.72;2041183;29;19918;-43
2022/08/22 05:51:12;;;;;;;;;;;;;;;25.54;48.99;99740.16;2036246;29;20138;-46
2022/08/22 05:52:19;;;;;;;;;;;;;;;25.54;49.00;99742.91;2034805;29;19929;-42
2022/08/22 05:53:38;;;;;;;;;;;;;;;25.53;48.97;99745.88;2034520;29;20005;-42
2022/08/22 05:54:52;;;;;;;;;;;;;;;25.54;49.14;99744.84;2037666;29;19978;-43
2022/08/22 05:56:02;;;;;;;;;;;;;;;25.53;49.05;99744.00;2029402;29;19926;-43
2022/08/22 05:57:07;;;;;;;;;;;;;;;25.52;49.30;99747.78;2029517;29;20687;-42
2022/08/22 05:58:17;;;;;;;;;;;;;;;25.53;49.07;99751.41;2028540;29;20367;-43
2022/08/22 05:59:23;;;;;;;;;;;;;;;25.52;49.06;99741.41;2035021;29;19926;-44
2022/08/22 06:00:27;;;;;;;;;;;;;;;25.51;49.06;99751.59;2033678;29;19918;-43
2022/08/22 06:01:34;;;;;;;;;;;;;;;25.51;49.07;99746.09;2029254;29;19927;-43
2022/08/22 06:02:48;;;;;;;;;;;;;;;25.51;49.24;99748.84;2035959;29;19918;-42
2022/08/22 06:03:55;;;;;;;;;;;;;;;25.53;49.18;99756.91;2025271;29;19919;-46
2022/08/22 06:05:02;;;;;;;;;;;;;;;25.51;49.10;99751.59;2028982;29;19946;-43